Terminal Aerodrome Forecast
Issued by NWS Cleveland, OH

Home | Current Version | Previous Version | Graphics & Text | Print | Product List | Glossary On
Versions: 1 2 3 4 5 6 7 8 9 10 11 12 13 14 15 16 17 18 19 20 21 22
000
FTUS41 KCLE 161740
TAFTOL
TAF
KTOL 161740Z 1618/1718 23007KT P6SM SCT080
     FM162100 VRB04KT P6SM SCT200
     FM170400 10004KT 6SM BR BKN200
     FM170700 10004KT 4SM BR SCT010 OVC200
     FM171500 13004KT P6SM BKN120 OVC200=

USA.gov is the U.S. government's official web portal to all federal, state and local government web resources and services.